sensor_id;sensor_type;location;lat;lon;timestamp;pressure;altitude;pressure_sealevel;temperature;humidity
50852;BME280;43953;45.508;-122.806;2023-05-14T00:00:19;100844.19;;;35.60;14.07
50852;BME280;43953;45.508;-122.806;2023-05-14T00:00:51;100847.00;;;35.60;14.34
50852;BME280;43953;45.508;-122.806;2023-05-14T00:01:23;100846.19;;;35.59;14.26
50852;BME280;43953;45.508;-122.806;2023-05-14T00:01:54;100856.97;;;35.57;14.09
50852;BME280;43953;45.508;-122.806;2023-05-14T00:02:26;100838.91;;;35.54;14.78
50852;BME280;43953;45.508;-122.806;2023-05-14T00:02:58;100840.88;;;35.54;14.54
50852;BME280;43953;45.508;-122.806;2023-05-14T00:03:30;100846.47;;;35.54;14.55
50852;BME280;43953;45.508;-122.806;2023-05-14T00:04:02;100840.88;;;35.54;14.75
50852;BME280;43953;45.508;-122.806;2023-05-14T00:04:34;100846.16;;;35.56;14.23
50852;BME280;43953;45.508;-122.806;2023-05-14T00:05:07;100845.31;;;35.55;14.16
50852;BME280;43953;45.508;-122.806;2023-05-14T00:05:39;100836.47;;;35.53;14.12
50852;BME280;43953;45.508;-122.806;2023-05-14T00:06:10;100838.84;;;35.51;13.98
50852;BME280;43953;45.508;-122.806;2023-05-14T00:06:42;100841.19;;;35.49;13.85
50852;BME280;43953;45.508;-122.806;2023-05-14T00:07:14;100849.97;;;35.47;13.88
50852;BME280;43953;45.508;-122.806;2023-05-14T00:07:46;100840.78;;;35.47;14.03
50852;BME280;43953;45.508;-122.806;2023-05-14T00:08:18;100835.53;;;35.45;14.05
50852;BME280;43953;45.508;-122.806;2023-05-14T00:08:50;100840.34;;;35.45;14.24
50852;BME280;43953;45.508;-122.806;2023-05-14T00:09:21;100839.09;;;35.42;14.08
50852;BME280;43953;45.508;-122.806;2023-05-14T00:09:53;100839.84;;;35.39;14.12
50852;BME280;43953;45.508;-122.806;2023-05-14T00:10:26;100839.41;;;35.37;14.66
50852;BME280;43953;45.508;-122.806;2023-05-14T00:10:58;100837.34;;;35.34;14.39
50852;BME280;43953;45.508;-122.806;2023-05-14T00:11:29;100847.25;;;35.28;14.43
50852;BME280;43953;45.508;-122.806;2023-05-14T00:12:01;100835.22;;;35.24;14.35
50852;BME280;43953;45.508;-122.806;2023-05-14T00:12:33;100839.91;;;35.20;14.48
50852;BME280;43953;45.508;-122.806;2023-05-14T00:13:05;100839.50;;;35.18;14.63
50852;BME280;43953;45.508;-122.806;2023-05-14T00:13:36;100835.47;;;35.15;14.61
50852;BME280;43953;45.508;-122.806;2023-05-14T00:14:08;100837.44;;;35.15;14.46
50852;BME280;43953;45.508;-122.806;2023-05-14T00:14:40;100832.22;;;35.13;14.60
50852;BME280;43953;45.508;-122.806;2023-05-14T00:15:11;100836.50;;;35.07;14.54
50852;BME280;43953;45.508;-122.806;2023-05-14T00:15:43;100820.91;;;35.06;14.97
50852;BME280;43953;45.508;-122.806;2023-05-14T00:16:15;100842.03;;;35.03;15.72
50852;BME280;43953;45.508;-122.806;2023-05-14T00:16:47;100830.78;;;35.00;15.42
50852;BME280;43953;45.508;-122.806;2023-05-14T00:17:18;100826.28;;;34.95;14.85
50852;BME280;43953;45.508;-122.806;2023-05-14T00:17:50;100827.47;;;34.94;15.35
50852;BME280;43953;45.508;-122.806;2023-05-14T00:18:22;100833.88;;;34.95;15.16
50852;BME280;43953;45.508;-122.806;2023-05-14T00:18:53;100823.44;;;34.92;15.41
50852;BME280;43953;45.508;-122.806;2023-05-14T00:19:25;100836.59;;;34.91;15.10
50852;BME280;43953;45.508;-122.806;2023-05-14T00:19:57;100825.34;;;34.87;14.84
50852;BME280;43953;45.508;-122.806;2023-05-14T00:20:29;100836.09;;;34.85;15.05
50852;BME280;43953;45.508;-122.806;2023-05-14T00:21:01;100832.84;;;34.83;15.34
50852;BME280;43953;45.508;-122.806;2023-05-14T00:21:33;100823.22;;;34.81;15.14
50852;BME280;43953;45.508;-122.806;2023-05-14T00:22:05;100833.59;;;34.80;15.14
50852;BME280;43953;45.508;-122.806;2023-05-14T00:22:37;100832.78;;;34.80;15.22
50852;BME280;43953;45.508;-122.806;2023-05-14T00:23:09;100837.59;;;34.79;15.51
50852;BME280;43953;45.508;-122.806;2023-05-14T00:23:41;100829.94;;;34.76;15.02
50852;BME280;43953;45.508;-122.806;2023-05-14T00:24:13;100824.28;;;34.73;15.32
50852;BME280;43953;45.508;-122.806;2023-05-14T00:24:45;100827.09;;;34.73;15.09
50852;BME280;43953;45.508;-122.806;2023-05-14T00:25:16;100834.22;;;34.70;15.21
50852;BME280;43953;45.508;-122.806;2023-05-14T00:25:48;100829.00;;;34.69;15.46
50852;BME280;43953;45.508;-122.806;2023-05-14T00:26:20;100818.19;;;34.67;15.60
50852;BME280;43953;45.508;-122.806;2023-05-14T00:26:52;100827.75;;;34.66;15.21
50852;BME280;43953;45.508;-122.806;2023-05-14T00:27:24;100830.13;;;34.64;15.24
50852;BME280;43953;45.508;-122.806;2023-05-14T00:27:56;100821.28;;;34.62;15.18
50852;BME280;43953;45.508;-122.806;2023-05-14T00:28:27;100822.81;;;34.59;14.85
50852;BME280;43953;45.508;-122.806;2023-05-14T00:28:59;100821.22;;;34.58;14.91
50852;BME280;43953;45.508;-122.806;2023-05-14T00:29:31;100814.38;;;34.56;15.17
50852;BME280;43953;45.508;-122.806;2023-05-14T00:30:06;100814.72;;;34.54;14.75
50852;BME280;43953;45.508;-122.806;2023-05-14T00:30:38;100816.25;;;34.52;14.76
50852;BME280;43953;45.508;-122.806;2023-05-14T00:31:10;100814.63;;;34.51;14.81
50852;BME280;43953;45.508;-122.806;2023-05-14T00:31:41;100818.63;;;34.50;14.83
50852;BME280;43953;45.508;-122.806;2023-05-14T00:32:13;100822.56;;;34.49;15.34
50852;BME280;43953;45.508;-122.806;2023-05-14T00:32:45;100816.97;;;34.49;14.88
50852;BME280;43953;45.508;-122.806;2023-05-14T00:33:16;100806.53;;;34.46;15.03
50852;BME280;43953;45.508;-122.806;2023-05-14T00:33:48;100815.38;;;34.48;15.31
50852;BME280;43953;45.508;-122.806;2023-05-14T00:34:20;100816.97;;;34.49;15.14
50852;BME280;43953;45.508;-122.806;2023-05-14T00:34:51;100811.38;;;34.49;15.24
50852;BME280;43953;45.508;-122.806;2023-05-14T00:35:23;100808.59;;;34.49;14.81
50852;BME280;43953;45.508;-122.806;2023-05-14T00:35:55;100812.97;;;34.46;14.69
50852;BME280;43953;45.508;-122.806;2023-05-14T00:36:26;100806.94;;;34.44;14.63
50852;BME280;43953;45.508;-122.806;2023-05-14T00:36:58;100817.31;;;34.43;14.54
50852;BME280;43953;45.508;-122.806;2023-05-14T00:37:30;100815.31;;;34.44;15.01
50852;BME280;43953;45.508;-122.806;2023-05-14T00:38:02;100820.84;;;34.40;14.78
50852;BME280;43953;45.508;-122.806;2023-05-14T00:38:34;100819.19;;;34.39;14.79
50852;BME280;43953;45.508;-122.806;2023-05-14T00:39:06;100819.94;;;34.36;14.76
50852;BME280;43953;45.508;-122.806;2023-05-14T00:39:37;100818.69;;;34.34;14.74
50852;BME280;43953;45.508;-122.806;2023-05-14T00:40:10;100814.66;;;34.31;14.80
50852;BME280;43953;45.508;-122.806;2023-05-14T00:40:43;100814.66;;;34.31;15.00
50852;BME280;43953;45.508;-122.806;2023-05-14T00:41:16;100812.22;;;34.30;14.61
50852;BME280;43953;45.508;-122.806;2023-05-14T00:41:47;100813.78;;;34.27;14.54
50852;BME280;43953;45.508;-122.806;2023-05-14T00:42:19;100814.50;;;34.24;14.83
50852;BME280;43953;45.508;-122.806;2023-05-14T00:42:51;100806.84;;;34.21;15.08
50852;BME280;43953;45.508;-122.806;2023-05-14T00:43:23;100810.84;;;34.20;15.36
50852;BME280;43953;45.508;-122.806;2023-05-14T00:43:56;100807.13;;;34.16;15.34
50852;BME280;43953;45.508;-122.806;2023-05-14T00:44:27;100810.66;;;34.13;15.11
50852;BME280;43953;45.508;-122.806;2023-05-14T00:44:59;100816.66;;;34.11;15.12
50852;BME280;43953;45.508;-122.806;2023-05-14T00:45:31;100812.94;;;34.07;15.26
50852;BME280;43953;45.508;-122.806;2023-05-14T00:46:02;100816.13;;;34.06;14.96
50852;BME280;43953;45.508;-122.806;2023-05-14T00:46:34;100810.44;;;34.02;14.80
50852;BME280;43953;45.508;-122.806;2023-05-14T00:47:06;100808.00;;;34.01;14.91
50852;BME280;43953;45.508;-122.806;2023-05-14T00:47:38;100818.38;;;34.00;14.46
50852;BME280;43953;45.508;-122.806;2023-05-14T00:48:10;100808.38;;;33.99;14.67
50852;BME280;43953;45.508;-122.806;2023-05-14T00:48:43;100807.91;;;33.97;14.72
50852;BME280;43953;45.508;-122.806;2023-05-14T00:49:15;100811.53;;;33.97;14.83
50852;BME280;43953;45.508;-122.806;2023-05-14T00:49:47;100814.31;;;33.97;15.00
50852;BME280;43953;45.508;-122.806;2023-05-14T00:50:20;100803.13;;;33.97;14.85
50852;BME280;43953;45.508;-122.806;2023-05-14T00:50:51;100805.94;;;33.97;14.89
50852;BME280;43953;45.508;-122.806;2023-05-14T00:51:23;100810.72;;;33.97;15.31
50852;BME280;43953;45.508;-122.806;2023-05-14T00:51:55;100810.25;;;33.95;15.10
50852;BME280;43953;45.508;-122.806;2023-05-14T00:52:29;100809.47;;;33.94;15.22
50852;BME280;43953;45.508;-122.806;2023-05-14T00:53:01;100803.06;;;33.94;15.09
50852;BME280;43953;45.508;-122.806;2023-05-14T00:53:35;100811.44;;;33.94;15.31
50852;BME280;43953;45.508;-122.806;2023-05-14T00:54:07;100810.66;;;33.93;15.46
50852;BME280;43953;45.508;-122.806;2023-05-14T00:54:39;100811.78;;;33.92;15.36
50852;BME280;43953;45.508;-122.806;2023-05-14T00:55:12;100808.59;;;33.90;15.47
50852;BME280;43953;45.508;-122.806;2023-05-14T00:55:48;100815.69;;;33.88;15.69
50852;BME280;43953;45.508;-122.806;2023-05-14T00:56:20;100806.88;;;33.86;15.43
50852;BME280;43953;45.508;-122.806;2023-05-14T00:56:53;100806.81;;;33.82;15.69
50852;BME280;43953;45.508;-122.806;2023-05-14T00:57:25;100813.13;;;33.79;15.58
50852;BME280;43953;45.508;-122.806;2023-05-14T00:57:58;100809.41;;;33.75;15.81
50852;BME280;43953;45.508;-122.806;2023-05-14T00:58:30;100805.81;;;33.74;15.88
50852;BME280;43953;45.508;-122.806;2023-05-14T00:59:02;100807.81;;;33.74;15.87
50852;BME280;43953;45.508;-122.806;2023-05-14T00:59:34;100800.16;;;33.71;15.85
50852;BME280;43953;45.508;-122.806;2023-05-14T01:00:06;100806.56;;;33.71;15.46
50852;BME280;43953;45.508;-122.806;2023-05-14T01:00:40;100808.53;;;33.71;15.60
50852;BME280;43953;45.508;-122.806;2023-05-14T01:01:11;100807.34;;;33.72;15.65
50852;BME280;43953;45.508;-122.806;2023-05-14T01:01:45;100814.13;;;33.71;15.87
50852;BME280;43953;45.508;-122.806;2023-05-14T01:02:17;100804.13;;;33.70;15.63
50852;BME280;43953;45.508;-122.806;2023-05-14T01:02:48;100807.28;;;33.68;15.81
50852;BME280;43953;45.508;-122.806;2023-05-14T01:03:20;100808.81;;;33.66;15.50
50852;BME280;43953;45.508;-122.806;2023-05-14T01:03:52;100809.53;;;33.63;15.39
50852;BME280;43953;45.508;-122.806;2023-05-14T01:04:25;100799.91;;;33.60;15.86
50852;BME280;43953;45.508;-122.806;2023-05-14T01:04:56;100798.69;;;33.58;15.93
50852;BME280;43953;45.508;-122.806;2023-05-14T01:07:04;100793.25;;;33.49;15.72
50852;BME280;43953;45.508;-122.806;2023-05-14T01:08:00;100798.31;;;33.43;15.77
50852;BME280;43953;45.508;-122.806;2023-05-14T01:09:45;100804.88;;;33.35;15.51
50852;BME280;43953;45.508;-122.806;2023-05-14T01:10:26;100806.06;;;33.34;15.50
50852;BME280;43953;45.508;-122.806;2023-05-14T01:11:05;100802.00;;;33.32;15.57
50852;BME280;43953;45.508;-122.806;2023-05-14T01:11:56;100809.56;;;33.31;15.52
50852;BME280;43953;45.508;-122.806;2023-05-14T01:14:10;100798.31;;;33.27;15.95
50852;BME280;43953;45.508;-122.806;2023-05-14T01:15:30;100799.94;;;33.28;15.58
50852;BME280;43953;45.508;-122.806;2023-05-14T01:16:03;100795.97;;;33.29;15.79
50852;BME280;43953;45.508;-122.806;2023-05-14T01:16:36;100795.97;;;33.29;15.76
50852;BME280;43953;45.508;-122.806;2023-05-14T01:17:10;100804.34;;;33.29;16.03
50852;BME280;43953;45.508;-122.806;2023-05-14T01:17:55;100803.53;;;33.29;15.46
50852;BME280;43953;45.508;-122.806;2023-05-14T01:18:31;100797.50;;;33.27;15.48
50852;BME280;43953;45.508;-122.806;2023-05-14T01:19:05;100790.78;;;33.28;15.58
50852;BME280;43953;45.508;-122.806;2023-05-14T01:19:42;100791.13;;;33.26;15.89
50852;BME280;43953;45.508;-122.806;2023-05-14T01:20:14;100789.13;;;33.27;16.27
50852;BME280;43953;45.508;-122.806;2023-05-14T01:20:49;100796.34;;;33.28;16.58
50852;BME280;43953;45.508;-122.806;2023-05-14T01:21:33;100793.56;;;33.28;16.14
50852;BME280;43953;45.508;-122.806;2023-05-14T01:22:06;100798.69;;;33.26;16.31
50852;BME280;43953;45.508;-122.806;2023-05-14T01:22:38;100797.50;;;33.27;16.53
50852;BME280;43953;45.508;-122.806;2023-05-14T01:23:10;100794.28;;;33.25;16.02
50852;BME280;43953;45.508;-122.806;2023-05-14T01:23:41;100796.25;;;33.24;16.43
50852;BME280;43953;45.508;-122.806;2023-05-14T01:24:13;100797.06;;;33.25;15.89
50852;BME280;43953;45.508;-122.806;2023-05-14T01:24:45;100798.22;;;33.24;15.68
50852;BME280;43953;45.508;-122.806;2023-05-14T01:25:17;100803.38;;;33.22;15.49
50852;BME280;43953;45.508;-122.806;2023-05-14T01:25:49;100804.06;;;33.19;15.76
50852;BME280;43953;45.508;-122.806;2023-05-14T01:26:20;100806.84;;;33.19;15.91
50852;BME280;43953;45.508;-122.806;2023-05-14T01:26:54;100798.88;;;33.17;15.87
50852;BME280;43953;45.508;-122.806;2023-05-14T01:28:31;100801.56;;;33.14;15.87
50852;BME280;43953;45.508;-122.806;2023-05-14T01:29:15;100796.78;;;33.14;16.20
50852;BME280;43953;45.508;-122.806;2023-05-14T01:31:07;100799.94;;;33.13;16.42
50852;BME280;43953;45.508;-122.806;2023-05-14T01:31:43;100794.34;;;33.13;16.20
50852;BME280;43953;45.508;-122.806;2023-05-14T01:32:16;100793.91;;;33.11;16.65
50852;BME280;43953;45.508;-122.806;2023-05-14T01:32:52;100794.28;;;33.09;16.53
50852;BME280;43953;45.508;-122.806;2023-05-14T01:33:27;100796.63;;;33.07;16.43
50852;BME280;43953;45.508;-122.806;2023-05-14T01:33:59;100798.59;;;33.06;16.78
50852;BME280;43953;45.508;-122.806;2023-05-14T01:34:34;100789.41;;;33.06;17.13
50852;BME280;43953;45.508;-122.806;2023-05-14T01:35:07;100789.78;;;33.04;17.47
50852;BME280;43953;45.508;-122.806;2023-05-14T01:35:40;100793.72;;;33.03;19.38
50852;BME280;43953;45.508;-122.806;2023-05-14T01:36:12;100786.88;;;33.01;18.54
50852;BME280;43953;45.508;-122.806;2023-05-14T01:36:44;100791.53;;;32.97;18.35
50852;BME280;43953;45.508;-122.806;2023-05-14T01:37:17;100792.72;;;32.96;18.15
50852;BME280;43953;45.508;-122.806;2023-05-14T01:37:49;100794.25;;;32.93;18.42
50852;BME280;43953;45.508;-122.806;2023-05-14T01:38:22;100795.06;;;32.94;17.62
50852;BME280;43953;45.508;-122.806;2023-05-14T01:38:55;100784.63;;;32.91;17.25
50852;BME280;43953;45.508;-122.806;2023-05-14T01:39:28;100787.75;;;32.89;17.20
50852;BME280;43953;45.508;-122.806;2023-05-14T01:40:03;100785.78;;;32.90;17.32
50852;BME280;43953;45.508;-122.806;2023-05-14T01:40:36;100796.13;;;32.89;17.44
50852;BME280;43953;45.508;-122.806;2023-05-14T01:41:07;100793.31;;;32.89;16.99
50852;BME280;43953;45.508;-122.806;2023-05-14T01:41:41;100794.88;;;32.87;17.10
50852;BME280;43953;45.508;-122.806;2023-05-14T01:42:13;100786.06;;;32.84;17.43
50852;BME280;43953;45.508;-122.806;2023-05-14T01:42:45;100780.47;;;32.84;17.43
50852;BME280;43953;45.508;-122.806;2023-05-14T01:43:18;100796.41;;;32.84;17.10
50852;BME280;43953;45.508;-122.806;2023-05-14T01:43:50;100788.75;;;32.81;17.62
50852;BME280;43953;45.508;-122.806;2023-05-14T01:44:22;100784.78;;;32.82;17.14
50852;BME280;43953;45.508;-122.806;2023-05-14T01:44:54;100793.97;;;32.82;17.09
50852;BME280;43953;45.508;-122.806;2023-05-14T01:45:26;100794.75;;;32.83;16.91
50852;BME280;43953;45.508;-122.806;2023-05-14T01:45:57;100792.69;;;32.80;16.99
50852;BME280;43953;45.508;-122.806;2023-05-14T01:46:32;100791.09;;;32.79;16.89
50852;BME280;43953;45.508;-122.806;2023-05-14T01:47:04;100793.88;;;32.79;16.57
50852;BME280;43953;45.508;-122.806;2023-05-14T01:47:36;100781.09;;;32.78;16.52
50852;BME280;43953;45.508;-122.806;2023-05-14T01:48:08;100785.84;;;32.77;16.15
50852;BME280;43953;45.508;-122.806;2023-05-14T01:48:39;100792.25;;;32.78;16.26
50852;BME280;43953;45.508;-122.806;2023-05-14T01:49:11;100797.84;;;32.78;16.72
50852;BME280;43953;45.508;-122.806;2023-05-14T01:49:43;100787.03;;;32.76;16.17
50852;BME280;43953;45.508;-122.806;2023-05-14T01:50:15;100789.00;;;32.76;16.46
50852;BME280;43953;45.508;-122.806;2023-05-14T01:50:46;100793.78;;;32.75;16.34
50852;BME280;43953;45.508;-122.806;2023-05-14T01:51:18;100779.84;;;32.75;16.37
50852;BME280;43953;45.508;-122.806;2023-05-14T01:51:50;100785.41;;;32.75;16.18
50852;BME280;43953;45.508;-122.806;2023-05-14T01:52:22;100783.44;;;32.76;16.49
50852;BME280;43953;45.508;-122.806;2023-05-14T01:52:54;100792.59;;;32.76;16.14
50852;BME280;43953;45.508;-122.806;2023-05-14T01:53:26;100777.84;;;32.76;16.51
50852;BME280;43953;45.508;-122.806;2023-05-14T01:53:58;100783.44;;;32.76;16.09
50852;BME280;43953;45.508;-122.806;2023-05-14T01:54:29;100789.00;;;32.76;16.18
50852;BME280;43953;45.508;-122.806;2023-05-14T01:55:01;100789.00;;;32.76;16.15
50852;BME280;43953;45.508;-122.806;2023-05-14T01:55:34;100798.56;;;32.75;16.39
50852;BME280;43953;45.508;-122.806;2023-05-14T01:56:05;100795.75;;;32.75;16.05
50852;BME280;43953;45.508;-122.806;2023-05-14T01:56:37;100784.16;;;32.73;16.01
50852;BME280;43953;45.508;-122.806;2023-05-14T01:57:09;100780.19;;;32.74;16.24
50852;BME280;43953;45.508;-122.806;2023-05-14T01:57:41;100791.34;;;32.74;16.37
50852;BME280;43953;45.508;-122.806;2023-05-14T01:58:12;100792.50;;;32.73;16.38
50852;BME280;43953;45.508;-122.806;2023-05-14T01:58:44;100784.16;;;32.73;16.34
50852;BME280;43953;45.508;-122.806;2023-05-14T01:59:16;100789.72;;;32.73;16.38
50852;BME280;43953;45.508;-122.806;2023-05-14T01:59:47;100791.34;;;32.74;16.70
50852;BME280;43953;45.508;-122.806;2023-05-14T02:00:21;100782.53;;;32.72;16.46
50852;BME280;43953;45.508;-122.806;2023-05-14T02:00:53;100784.16;;;32.73;16.25
50852;BME280;43953;45.508;-122.806;2023-05-14T02:01:25;100786.13;;;32.72;16.95
50852;BME280;43953;45.508;-122.806;2023-05-14T02:01:57;100785.34;;;32.72;16.59
50852;BME280;43953;45.508;-122.806;2023-05-14T02:02:28;100782.53;;;32.72;17.15
50852;BME280;43953;45.508;-122.806;2023-05-14T02:03:00;100789.25;;;32.71;17.05
50852;BME280;43953;45.508;-122.806;2023-05-14T02:03:32;100782.53;;;32.72;16.53
50852;BME280;43953;45.508;-122.806;2023-05-14T02:04:03;100785.34;;;32.72;16.87
50852;BME280;43953;45.508;-122.806;2023-05-14T02:04:35;100789.25;;;32.71;16.97
50852;BME280;43953;45.508;-122.806;2023-05-14T02:05:07;100794.84;;;32.71;16.95
50852;BME280;43953;45.508;-122.806;2023-05-14T02:05:39;100797.19;;;32.69;16.73
50852;BME280;43953;45.508;-122.806;2023-05-14T02:06:11;100798.34;;;32.68;16.54
50852;BME280;43953;45.508;-122.806;2023-05-14T02:06:43;100789.53;;;32.66;16.10
50852;BME280;43953;45.508;-122.806;2023-05-14T02:07:14;100783.13;;;32.65;16.58
50852;BME280;43953;45.508;-122.806;2023-05-14T02:07:46;100787.09;;;32.64;16.84
50852;BME280;43953;45.508;-122.806;2023-05-14T02:08:18;100782.34;;;32.65;16.91
50852;BME280;43953;45.508;-122.806;2023-05-14T02:08:49;100793.47;;;32.65;16.74
50852;BME280;43953;45.508;-122.806;2023-05-14T02:09:21;100789.09;;;32.63;16.38
50852;BME280;43953;45.508;-122.806;2023-05-14T02:09:53;100787.44;;;32.62;16.49
50852;BME280;43953;45.508;-122.806;2023-05-14T02:10:24;100783.06;;;32.61;16.52
50852;BME280;43953;45.508;-122.806;2023-05-14T02:10:56;100794.19;;;32.61;16.32
50852;BME280;43953;45.508;-122.806;2023-05-14T02:11:28;100788.16;;;32.59;16.66
50852;BME280;43953;45.508;-122.806;2023-05-14T02:11:59;100787.00;;;32.60;16.10
50852;BME280;43953;45.508;-122.806;2023-05-14T02:12:31;100790.16;;;32.59;16.15
50852;BME280;43953;45.508;-122.806;2023-05-14T02:13:03;100789.34;;;32.58;16.29
50852;BME280;43953;45.508;-122.806;2023-05-14T02:13:35;100787.72;;;32.57;16.11
50852;BME280;43953;45.508;-122.806;2023-05-14T02:14:06;100785.28;;;32.56;16.50
50852;BME280;43953;45.508;-122.806;2023-05-14T02:14:38;100786.47;;;32.55;16.25
50852;BME280;43953;45.508;-122.806;2023-05-14T02:15:10;100790.84;;;32.56;16.18
50852;BME280;43953;45.508;-122.806;2023-05-14T02:15:42;100797.25;;;32.56;16.47
50852;BME280;43953;45.508;-122.806;2023-05-14T02:16:14;100796.44;;;32.56;16.69
50852;BME280;43953;45.508;-122.806;2023-05-14T02:16:45;100797.25;;;32.56;16.49
50852;BME280;43953;45.508;-122.806;2023-05-14T02:17:17;100791.66;;;32.56;16.48
50852;BME280;43953;45.508;-122.806;2023-05-14T02:17:49;100793.31;;;32.57;16.87
50852;BME280;43953;45.508;-122.806;2023-05-14T02:18:21;100795.63;;;32.55;16.67
50852;BME280;43953;45.508;-122.806;2023-05-14T02:18:52;100796.44;;;32.56;16.63
50852;BME280;43953;45.508;-122.806;2023-05-14T02:19:24;100797.25;;;32.56;16.44
50852;BME280;43953;45.508;-122.806;2023-05-14T02:19:56;100790.06;;;32.55;16.33
50852;BME280;43953;45.508;-122.806;2023-05-14T02:20:28;100799.22;;;32.56;16.69
50852;BME280;43953;45.508;-122.806;2023-05-14T02:21:00;100799.22;;;32.56;16.23
50852;BME280;43953;45.508;-122.806;2023-05-14T02:21:31;100786.81;;;32.53;16.34
50852;BME280;43953;45.508;-122.806;2023-05-14T02:22:03;100793.56;;;32.52;16.26
50852;BME280;43953;45.508;-122.806;2023-05-14T02:22:35;100794.72;;;32.51;16.24
50852;BME280;43953;45.508;-122.806;2023-05-14T02:23:07;100795.88;;;32.50;16.56
50852;BME280;43953;45.508;-122.806;2023-05-14T02:23:39;100799.47;;;32.51;16.67
50852;BME280;43953;45.508;-122.806;2023-05-14T02:24:10;100786.72;;;32.50;16.13
50852;BME280;43953;45.508;-122.806;2023-05-14T02:24:42;100802.63;;;32.49;16.18
50852;BME280;43953;45.508;-122.806;2023-05-14T02:25:14;100797.06;;;32.49;16.25
50852;BME280;43953;45.508;-122.806;2023-05-14T02:25:45;100799.38;;;32.47;16.44
50852;BME280;43953;45.508;-122.806;2023-05-14T02:26:17;100799.38;;;32.47;16.49
50852;BME280;43953;45.508;-122.806;2023-05-14T02:26:49;100786.13;;;32.44;16.71
50852;BME280;43953;45.508;-122.806;2023-05-14T02:27:20;100792.88;;;32.43;16.40
50852;BME280;43953;45.508;-122.806;2023-05-14T02:27:52;100797.66;;;32.43;16.59
50852;BME280;43953;45.508;-122.806;2023-05-14T02:28:24;100802.41;;;32.42;16.71
50852;BME280;43953;45.508;-122.806;2023-05-14T02:28:56;100800.78;;;32.41;16.36
50852;BME280;43953;45.508;-122.806;2023-05-14T02:29:27;100797.19;;;32.40;16.38
50852;BME280;43953;45.508;-122.806;2023-05-14T02:29:59;100791.97;;;32.39;16.53
50852;BME280;43953;45.508;-122.806;2023-05-14T02:30:31;100790.34;;;32.38;16.40
50852;BME280;43953;45.508;-122.806;2023-05-14T02:31:03;100796.63;;;32.35;16.79
50852;BME280;43953;45.508;-122.806;2023-05-14T02:31:34;100796.63;;;32.35;16.48
50852;BME280;43953;45.508;-122.806;2023-05-14T02:32:06;100800.59;;;32.34;16.48
50852;BME280;43953;45.508;-122.806;2023-05-14T02:32:38;100795.00;;;32.34;16.53
50852;BME280;43953;45.508;-122.806;2023-05-14T02:33:09;100790.59;;;32.33;16.46
50852;BME280;43953;45.508;-122.806;2023-05-14T02:33:41;100798.13;;;32.32;16.51
50852;BME280;43953;45.508;-122.806;2023-05-14T02:34:13;100798.84;;;32.29;16.43
50852;BME280;43953;45.508;-122.806;2023-05-14T02:34:44;100789.34;;;32.30;16.35
50852;BME280;43953;45.508;-122.806;2023-05-14T02:35:16;100794.44;;;32.28;16.52
50852;BME280;43953;45.508;-122.806;2023-05-14T02:35:48;100785.28;;;32.28;16.55
50852;BME280;43953;45.508;-122.806;2023-05-14T02:36:20;100794.78;;;32.27;17.10
50852;BME280;43953;45.508;-122.806;2023-05-14T02:36:52;100789.22;;;32.27;17.13
50852;BME280;43953;45.508;-122.806;2023-05-14T02:37:24;100789.22;;;32.27;16.72
50852;BME280;43953;45.508;-122.806;2023-05-14T02:37:55;100786.44;;;32.27;17.22
50852;BME280;43953;45.508;-122.806;2023-05-14T02:38:27;100788.41;;;32.26;16.78
50852;BME280;43953;45.508;-122.806;2023-05-14T02:38:59;100787.13;;;32.24;16.82
50852;BME280;43953;45.508;-122.806;2023-05-14T02:39:31;100787.13;;;32.24;17.29
50852;BME280;43953;45.508;-122.806;2023-05-14T02:40:03;100793.88;;;32.23;17.05
50852;BME280;43953;45.508;-122.806;2023-05-14T02:40:35;100789.84;;;32.20;17.08
50852;BME280;43953;45.508;-122.806;2023-05-14T02:41:07;100791.81;;;32.20;16.74
50852;BME280;43953;45.508;-122.806;2023-05-14T02:41:39;100793.00;;;32.18;16.76
50852;BME280;43953;45.508;-122.806;2023-05-14T02:42:10;100782.56;;;32.15;17.01
50852;BME280;43953;45.508;-122.806;2023-05-14T02:42:42;100785.69;;;32.14;17.05
50852;BME280;43953;45.508;-122.806;2023-05-14T02:43:15;100787.66;;;32.13;17.08
50852;BME280;43953;45.508;-122.806;2023-05-14T02:43:46;100790.44;;;32.13;17.02
50852;BME280;43953;45.508;-122.806;2023-05-14T02:44:18;100788.84;;;32.12;16.86
50852;BME280;43953;45.508;-122.806;2023-05-14T02:44:50;100784.41;;;32.11;16.88
50852;BME280;43953;45.508;-122.806;2023-05-14T02:45:22;100787.56;;;32.10;17.22
50852;BME280;43953;45.508;-122.806;2023-05-14T02:45:54;100786.72;;;32.09;17.16
50852;BME280;43953;45.508;-122.806;2023-05-14T02:46:26;100786.72;;;32.09;16.87
50852;BME280;43953;45.508;-122.806;2023-05-14T02:46:57;100791.84;;;32.07;16.75
50852;BME280;43953;45.508;-122.806;2023-05-14T02:47:29;100783.03;;;32.05;17.07
50852;BME280;43953;45.508;-122.806;2023-05-14T02:48:01;100786.19;;;32.04;17.14
50852;BME280;43953;45.508;-122.806;2023-05-14T02:48:32;100784.91;;;32.01;16.63
50852;BME280;43953;45.508;-122.806;2023-05-14T02:49:04;100778.16;;;32.02;17.07
50852;BME280;43953;45.508;-122.806;2023-05-14T02:49:36;100782.47;;;32.00;16.84
50852;BME280;43953;45.508;-122.806;2023-05-14T02:50:08;100788.41;;;31.98;17.09
50852;BME280;43953;45.508;-122.806;2023-05-14T02:50:40;100789.13;;;31.95;16.86